createdAt,value
2018-12-20T00:01:21.064Z,2.87
2018-12-20T00:05:32.778Z,2.80
2018-12-20T00:09:44.820Z,3.20
2018-12-20T00:13:56.944Z,2.40
2018-12-20T00:18:08.993Z,3.03
2018-12-20T00:22:21.012Z,2.00
2018-12-20T00:26:33.250Z,2.40
2018-12-20T00:30:45.457Z,1.50
2018-12-20T00:34:57.436Z,1.17
2018-12-20T00:39:09.994Z,1.33
2018-12-20T00:43:21.906Z,2.03
2018-12-20T00:47:33.870Z,2.47
2018-12-20T00:51:46.024Z,2.33
2018-12-20T00:55:58.118Z,1.87
2018-12-20T01:00:11.850Z,2.43
2018-12-20T01:04:23.750Z,3.20
2018-12-20T01:08:35.630Z,2.37
2018-12-20T01:12:47.673Z,2.77
2018-12-20T01:16:59.709Z,2.80
2018-12-20T01:21:11.822Z,2.80
2018-12-20T01:25:23.879Z,2.57
2018-12-20T01:29:35.616Z,3.40
2018-12-20T01:33:47.424Z,3.07
2018-12-20T01:37:59.622Z,3.37
2018-12-20T01:42:11.454Z,3.27
2018-12-20T01:46:23.287Z,3.70
2018-12-20T01:50:35.281Z,2.93
2018-12-20T01:54:47.410Z,3.67
2018-12-20T01:58:59.414Z,2.63
2018-12-20T02:03:11.717Z,2.37
2018-12-20T02:07:23.803Z,3.27
2018-12-20T02:11:35.718Z,2.60
2018-12-20T02:15:47.752Z,3.03
2018-12-20T02:19:59.822Z,3.40
2018-12-20T02:24:11.582Z,3.00
2018-12-20T02:28:23.348Z,3.13
2018-12-20T02:32:35.495Z,3.10
2018-12-20T02:36:47.918Z,3.00
2018-12-20T02:41:00.301Z,3.03
2018-12-20T02:45:11.920Z,2.77
2018-12-20T02:49:23.937Z,3.37
2018-12-20T02:53:35.730Z,2.97
2018-12-20T02:57:47.484Z,3.47
2018-12-20T03:02:00.091Z,3.73
2018-12-20T03:06:15.001Z,3.07
2018-12-20T03:10:27.019Z,2.77
2018-12-20T03:14:39.104Z,3.30
2018-12-20T03:18:51.018Z,2.47
2018-12-20T03:23:03.016Z,3.20
2018-12-20T03:27:15.383Z,3.00
2018-12-20T03:31:27.390Z,3.17
2018-12-20T03:35:39.341Z,2.93
2018-12-20T03:39:51.577Z,3.10
2018-12-20T03:44:03.550Z,2.47
2018-12-20T03:48:15.722Z,2.27
2018-12-20T03:52:27.884Z,3.13
2018-12-20T03:56:39.904Z,3.47
2018-12-20T04:00:52.041Z,3.30
2018-12-20T04:05:04.193Z,3.50
2018-12-20T04:09:16.224Z,2.63
2018-12-20T04:13:28.400Z,2.53
2018-12-20T04:17:40.582Z,2.83
2018-12-20T04:21:52.954Z,3.20
2018-12-20T04:26:05.184Z,2.77
2018-12-20T04:30:17.112Z,3.17
2018-12-20T04:34:29.047Z,2.70
2018-12-20T04:38:40.818Z,4.03
2018-12-20T04:42:52.762Z,3.53
2018-12-20T04:47:04.971Z,3.30
2018-12-20T04:51:17.087Z,3.27
2018-12-20T04:55:29.394Z,3.10
2018-12-20T04:59:41.731Z,3.20
2018-12-20T05:03:53.549Z,2.77
2018-12-20T05:08:05.514Z,2.87
2018-12-20T05:12:17.408Z,3.40
2018-12-20T05:16:29.490Z,2.40
2018-12-20T05:20:41.607Z,3.43
2018-12-20T05:24:53.740Z,2.70
2018-12-20T05:29:05.954Z,3.43
2018-12-20T05:33:18.238Z,2.80
2018-12-20T05:37:30.320Z,3.17
2018-12-20T05:41:42.286Z,2.57
2018-12-20T05:45:54.316Z,3.23
2018-12-20T05:50:06.602Z,3.20
2018-12-20T05:54:18.557Z,3.47
2018-12-20T05:58:30.445Z,2.90
2018-12-20T06:02:42.474Z,2.87
2018-12-20T06:06:54.515Z,2.67
2018-12-20T06:11:06.628Z,3.10
2018-12-20T06:15:18.223Z,3.00
2018-12-20T06:19:30.368Z,3.70
2018-12-20T06:23:42.057Z,4.20
2018-12-20T06:27:53.846Z,4.43
2018-12-20T06:32:05.943Z,6.70
2018-12-20T06:36:17.955Z,5.50
2018-12-20T06:40:30.130Z,4.87
2018-12-20T06:44:41.982Z,4.50
2018-12-20T06:48:53.766Z,4.90
2018-12-20T06:53:05.546Z,5.63
2018-12-20T06:57:17.239Z,5.47
2018-12-20T07:01:29.318Z,6.20
2018-12-20T07:05:41.302Z,4.53
2018-12-20T07:09:53.375Z,3.00
2018-12-20T07:14:05.407Z,3.73
2018-12-20T07:18:17.378Z,4.83
2018-12-20T07:22:29.551Z,4.03
2018-12-20T07:26:41.618Z,5.57
2018-12-20T07:30:53.711Z,8.40
2018-12-20T07:35:06.024Z,16.53
2018-12-20T07:39:18.156Z,20.23
2018-12-20T07:43:30.043Z,19.87
2018-12-20T07:47:42.134Z,12.43
2018-12-20T07:51:54.255Z,5.43
2018-12-20T07:56:06.254Z,4.10
2018-12-20T08:00:18.457Z,5.07
2018-12-20T08:04:30.564Z,5.50
2018-12-20T08:08:42.015Z,4.87
2018-12-20T08:12:53.803Z,5.03
2018-12-20T08:17:05.702Z,4.27
2018-12-20T08:21:17.623Z,3.97
2018-12-20T08:25:29.479Z,3.10
2018-12-20T08:29:41.584Z,3.13
2018-12-20T08:33:53.690Z,3.10
2018-12-20T08:38:05.709Z,2.60
2018-12-20T08:42:17.796Z,2.40
2018-12-20T08:46:29.338Z,2.30
2018-12-20T08:50:41.139Z,1.83
2018-12-20T08:54:52.898Z,2.50
2018-12-20T08:59:04.844Z,1.67
2018-12-20T09:03:16.909Z,2.00
2018-12-20T09:07:28.906Z,1.50
2018-12-20T09:11:41.065Z,1.60
2018-12-20T09:15:53.123Z,1.83
2018-12-20T09:20:05.375Z,1.80
2018-12-20T09:24:17.442Z,2.23
2018-12-20T09:28:29.474Z,1.90
2018-12-20T09:32:41.662Z,2.00
2018-12-20T09:36:53.674Z,1.90
2018-12-20T09:41:06.135Z,2.10
2018-12-20T09:45:18.115Z,2.60
2018-12-20T09:49:30.118Z,3.03
2018-12-20T09:53:42.400Z,3.23
2018-12-20T09:57:54.323Z,2.77
2018-12-20T10:02:06.437Z,2.47
2018-12-20T10:06:18.939Z,3.30
2018-12-20T10:10:30.867Z,2.60
2018-12-20T10:14:42.875Z,2.97
2018-12-20T10:18:54.868Z,2.47
2018-12-20T10:23:07.075Z,2.67
2018-12-20T10:27:19.184Z,2.43
2018-12-20T10:31:31.388Z,2.30
2018-12-20T10:35:43.363Z,2.20
2018-12-20T10:39:55.458Z,2.73
2018-12-20T10:44:07.618Z,2.53
2018-12-20T10:48:19.732Z,3.03
2018-12-20T10:52:31.364Z,3.17
2018-12-20T10:56:43.332Z,2.60
2018-12-20T11:01:00.188Z,2.50
2018-12-20T11:05:16.847Z,2.73
2018-12-20T11:09:34.037Z,2.13
2018-12-20T11:13:45.637Z,2.57
2018-12-20T11:17:57.453Z,2.60
2018-12-20T11:22:09.230Z,2.93
2018-12-20T11:26:21.192Z,2.40
2018-12-20T11:30:33.224Z,2.40
2018-12-20T11:34:45.215Z,3.00
2018-12-20T11:38:57.307Z,3.37
2018-12-20T11:43:09.314Z,9.30
2018-12-20T11:47:25.555Z,3.87
2018-12-20T11:51:37.617Z,4.20
2018-12-20T11:55:49.595Z,2.63
2018-12-20T12:00:01.431Z,3.90
2018-12-20T12:04:13.267Z,2.80
2018-12-20T12:08:25.244Z,3.37
2018-12-20T12:12:37.375Z,3.90
2018-12-20T12:16:49.427Z,3.17
2018-12-20T12:21:01.472Z,3.10
2018-12-20T12:25:13.674Z,3.27
2018-12-20T12:29:25.784Z,4.47
2018-12-20T12:33:37.791Z,3.67
2018-12-20T12:37:50.579Z,4.53
2018-12-20T12:42:02.428Z,3.87
2018-12-20T12:46:14.575Z,4.60
2018-12-20T12:50:26.560Z,3.60
2018-12-20T12:54:38.540Z,4.07
2018-12-20T12:58:50.643Z,3.63
2018-12-20T13:03:02.747Z,3.43
2018-12-20T13:07:14.806Z,3.30
2018-12-20T13:11:26.967Z,3.50
2018-12-20T13:15:39.027Z,3.70
2018-12-20T13:19:51.112Z,2.77
2018-12-20T13:24:03.115Z,2.90
2018-12-20T13:28:15.264Z,3.23
2018-12-20T13:32:27.357Z,3.00
2018-12-20T13:36:39.326Z,2.77
2018-12-20T13:40:51.432Z,2.97
2018-12-20T13:45:03.659Z,3.03
2018-12-20T13:49:15.647Z,2.27
2018-12-20T13:53:27.658Z,2.77
2018-12-20T13:57:39.757Z,1.53
2018-12-20T14:01:52.101Z,2.93
2018-12-20T14:06:04.209Z,2.50
2018-12-20T14:10:16.287Z,2.63
2018-12-20T14:14:28.302Z,2.20
2018-12-20T14:18:40.382Z,2.37
2018-12-20T14:22:52.508Z,2.23
2018-12-20T14:27:04.609Z,3.10
2018-12-20T14:31:16.387Z,2.17
2018-12-20T14:35:28.127Z,2.33
2018-12-20T14:39:40.030Z,2.77
2018-12-20T14:43:51.919Z,1.90
2018-12-20T14:48:03.921Z,2.30
2018-12-20T14:52:16.027Z,2.40
2018-12-20T14:56:27.776Z,2.90
2018-12-20T15:00:39.583Z,2.40
2018-12-20T15:04:51.268Z,2.60
2018-12-20T15:09:03.547Z,3.30
2018-12-20T15:13:15.503Z,2.83
2018-12-20T15:17:27.500Z,3.00
2018-12-20T15:21:39.626Z,3.33
2018-12-20T15:25:51.682Z,2.97
2018-12-20T15:30:05.481Z,3.80
2018-12-20T15:34:17.603Z,2.77
2018-12-20T15:38:30.441Z,3.10
2018-12-20T15:42:42.306Z,2.70
2018-12-20T15:46:54.227Z,2.73
2018-12-20T15:51:05.999Z,3.87
2018-12-20T15:55:17.877Z,3.50
2018-12-20T15:59:29.976Z,3.43
2018-12-20T16:03:42.079Z,2.90
2018-12-20T16:07:55.975Z,3.83
2018-12-20T16:12:08.317Z,4.20
2018-12-20T16:16:21.797Z,3.50
2018-12-20T16:20:37.738Z,3.40
2018-12-20T16:24:53.552Z,3.17
2018-12-20T16:29:08.151Z,2.97
2018-12-20T16:33:20.299Z,3.33
2018-12-20T16:37:31.986Z,3.23
2018-12-20T16:41:43.969Z,3.67
2018-12-20T16:45:56.059Z,3.37
2018-12-20T16:50:09.659Z,4.00
2018-12-20T16:54:21.708Z,4.13
2018-12-20T16:58:33.306Z,3.73
2018-12-20T17:02:44.964Z,4.00
2018-12-20T17:06:56.867Z,3.87
2018-12-20T17:11:08.864Z,4.10
2018-12-20T17:15:20.843Z,4.30
2018-12-20T17:19:32.935Z,4.97
2018-12-20T17:23:45.093Z,4.30
2018-12-20T17:27:57.159Z,5.57
2018-12-20T17:32:09.257Z,4.20
2018-12-20T17:36:21.388Z,4.57
2018-12-20T17:40:33.574Z,4.83
2018-12-20T17:44:45.683Z,5.00
2018-12-20T17:48:57.779Z,5.50
2018-12-20T17:53:09.999Z,5.07
2018-12-20T17:57:22.160Z,4.87
2018-12-20T18:01:34.227Z,5.17
2018-12-20T18:05:46.321Z,4.73
2018-12-20T18:09:58.424Z,5.20
2018-12-20T18:14:10.532Z,4.53
2018-12-20T18:18:22.664Z,4.20
2018-12-20T18:22:34.285Z,4.00
2018-12-20T18:26:46.073Z,3.60
2018-12-20T18:30:58.010Z,3.23
2018-12-20T18:35:09.927Z,3.80
2018-12-20T18:39:21.772Z,3.73
2018-12-20T18:43:33.771Z,3.77
2018-12-20T18:47:45.875Z,3.90
2018-12-20T18:51:58.074Z,4.30
2018-12-20T18:56:09.622Z,4.60
2018-12-20T19:00:21.737Z,5.20
2018-12-20T19:04:33.841Z,4.43
2018-12-20T19:08:45.912Z,4.00
2018-12-20T19:12:57.766Z,4.80
2018-12-20T19:17:09.611Z,5.03
2018-12-20T19:21:21.943Z,5.00
2018-12-20T19:25:34.950Z,5.23
2018-12-20T19:29:46.695Z,4.43
2018-12-20T19:33:58.386Z,5.30
2018-12-20T19:38:10.150Z,4.40
2018-12-20T19:42:22.268Z,3.87
2018-12-20T19:46:34.373Z,3.60
2018-12-20T19:50:46.519Z,4.47
2018-12-20T19:54:58.475Z,4.27
2018-12-20T19:59:10.579Z,3.73
2018-12-20T20:03:23.464Z,3.67
2018-12-20T20:07:35.162Z,3.43
2018-12-20T20:11:47.323Z,4.20
2018-12-20T20:15:59.324Z,3.90
2018-12-20T20:20:14.165Z,3.93
2018-12-20T20:24:25.463Z,4.17
2018-12-20T20:28:37.425Z,3.80
2018-12-20T20:32:49.297Z,4.13
2018-12-20T20:37:02.271Z,4.60
2018-12-20T20:41:14.532Z,3.70
2018-12-20T20:45:26.160Z,4.17
2018-12-20T20:49:37.983Z,5.00
2018-12-20T20:53:49.684Z,3.87
2018-12-20T20:58:02.136Z,4.47
2018-12-20T21:02:14.204Z,4.80
2018-12-20T21:06:25.951Z,4.30
2018-12-20T21:10:37.780Z,3.70
2018-12-20T21:14:52.544Z,4.40
2018-12-20T21:19:03.982Z,4.10
2018-12-20T21:23:15.827Z,3.67
2018-12-20T21:27:27.752Z,4.80
2018-12-20T21:31:39.887Z,4.40
2018-12-20T21:35:51.834Z,5.30
2018-12-20T21:40:04.043Z,4.90
2018-12-20T21:44:16.279Z,5.37
2018-12-20T21:48:28.362Z,4.77
2018-12-20T21:52:40.486Z,4.87
2018-12-20T21:56:52.782Z,4.97
2018-12-20T22:01:04.908Z,4.80
2018-12-20T22:05:17.024Z,5.20
2018-12-20T22:09:28.631Z,4.30
2018-12-20T22:13:40.557Z,5.83
2018-12-20T22:17:52.460Z,4.30
2018-12-20T22:22:04.332Z,4.40
2018-12-20T22:26:16.226Z,4.97
2018-12-20T22:30:28.436Z,5.70
2018-12-20T22:34:40.443Z,6.53
2018-12-20T22:38:52.433Z,5.80
2018-12-20T22:43:04.559Z,5.17
2018-12-20T22:47:16.543Z,6.43
2018-12-20T22:51:28.659Z,7.23
2018-12-20T22:55:40.286Z,7.03
2018-12-20T22:59:52.179Z,5.93
2018-12-20T23:04:04.115Z,5.90
2018-12-20T23:08:16.174Z,7.07
2018-12-20T23:12:29.924Z,5.33
2018-12-20T23:16:41.667Z,5.63
2018-12-20T23:20:53.528Z,6.17
2018-12-20T23:25:05.728Z,5.50
2018-12-20T23:29:17.734Z,6.07
2018-12-20T23:33:29.747Z,6.17
2018-12-20T23:37:41.368Z,7.43
2018-12-20T23:41:53.247Z,5.97
2018-12-20T23:46:05.176Z,7.17
2018-12-20T23:50:17.055Z,5.70
2018-12-20T23:54:28.990Z,6.10
2018-12-20T23:58:40.975Z,5.67
